sensor_id;sensor_type;location;lat;lon;timestamp;temperature;humidity
37410;DHT22;23275;48.914;12.566;2022-09-20T00:00:27;9.70;99.90
37410;DHT22;23275;48.914;12.566;2022-09-20T00:02:55;9.70;99.90
37410;DHT22;23275;48.914;12.566;2022-09-20T00:05:20;9.70;99.90
37410;DHT22;23275;48.914;12.566;2022-09-20T00:07:46;9.70;99.90
37410;DHT22;23275;48.914;12.566;2022-09-20T00:10:11;9.70;99.90
37410;DHT22;23275;48.914;12.566;2022-09-20T00:12:38;9.70;99.90
37410;DHT22;23275;48.914;12.566;2022-09-20T00:15:04;9.70;99.90
37410;DHT22;23275;48.914;12.566;2022-09-20T00:17:30;9.70;99.90
37410;DHT22;23275;48.914;12.566;2022-09-20T00:19:56;9.70;99.90
37410;DHT22;23275;48.914;12.566;2022-09-20T00:22:21;9.70;99.90
37410;DHT22;23275;48.914;12.566;2022-09-20T00:24:47;9.70;99.90
37410;DHT22;23275;48.914;12.566;2022-09-20T00:27:12;9.70;99.90
37410;DHT22;23275;48.914;12.566;2022-09-20T00:29:38;9.60;99.90
37410;DHT22;23275;48.914;12.566;2022-09-20T00:32:04;9.60;99.90
37410;DHT22;23275;48.914;12.566;2022-09-20T00:34:29;9.60;99.90
37410;DHT22;23275;48.914;12.566;2022-09-20T00:37:13;9.60;99.90
37410;DHT22;23275;48.914;12.566;2022-09-20T00:39:39;9.60;99.90
37410;DHT22;23275;48.914;12.566;2022-09-20T00:42:05;9.60;99.90
37410;DHT22;23275;48.914;12.566;2022-09-20T00:52:36;9.60;99.90
37410;DHT22;23275;48.914;12.566;2022-09-20T00:55:06;9.60;99.90
37410;DHT22;23275;48.914;12.566;2022-09-20T00:57:32;9.60;99.90
37410;DHT22;23275;48.914;12.566;2022-09-20T01:00:03;9.60;99.90
37410;DHT22;23275;48.914;12.566;2022-09-20T01:02:32;9.60;99.90
37410;DHT22;23275;48.914;12.566;2022-09-20T01:05:00;9.60;99.90
37410;DHT22;23275;48.914;12.566;2022-09-20T01:07:26;9.60;99.90
37410;DHT22;23275;48.914;12.566;2022-09-20T01:09:52;9.60;99.90
37410;DHT22;23275;48.914;12.566;2022-09-20T01:12:20;9.60;99.90
37410;DHT22;23275;48.914;12.566;2022-09-20T01:14:49;9.60;99.90
37410;DHT22;23275;48.914;12.566;2022-09-20T01:17:16;9.60;99.90
37410;DHT22;23275;48.914;12.566;2022-09-20T01:19:48;9.60;99.90
37410;DHT22;23275;48.914;12.566;2022-09-20T01:27:49;9.60;99.90
37410;DHT22;23275;48.914;12.566;2022-09-20T01:30:21;9.60;99.90
37410;DHT22;23275;48.914;12.566;2022-09-20T01:35:22;9.60;99.90
37410;DHT22;23275;48.914;12.566;2022-09-20T01:44:07;9.60;99.90
37410;DHT22;23275;48.914;12.566;2022-09-20T01:46:36;9.60;99.90
37410;DHT22;23275;48.914;12.566;2022-09-20T01:49:08;9.70;99.90
37410;DHT22;23275;48.914;12.566;2022-09-20T01:54:57;9.70;99.90
37410;DHT22;23275;48.914;12.566;2022-09-20T01:57:35;9.60;99.90
37410;DHT22;23275;48.914;12.566;2022-09-20T02:00:07;9.60;99.90
37410;DHT22;23275;48.914;12.566;2022-09-20T02:20:00;9.60;99.90
37410;DHT22;23275;48.914;12.566;2022-09-20T02:25:48;9.60;99.90
37410;DHT22;23275;48.914;12.566;2022-09-20T02:31:35;9.60;99.90
37410;DHT22;23275;48.914;12.566;2022-09-20T02:45:21;9.60;99.90
37410;DHT22;23275;48.914;12.566;2022-09-20T02:47:52;9.50;99.90
37410;DHT22;23275;48.914;12.566;2022-09-20T02:53:29;9.50;99.90
37410;DHT22;23275;48.914;12.566;2022-09-20T02:56:13;9.50;99.90
37410;DHT22;23275;48.914;12.566;2022-09-20T03:07:40;9.50;99.90
37410;DHT22;23275;48.914;12.566;2022-09-20T03:10:22;9.60;99.90
37410;DHT22;23275;48.914;12.566;2022-09-20T03:16:07;9.60;99.90
37410;DHT22;23275;48.914;12.566;2022-09-20T03:21:58;9.60;99.90
37410;DHT22;23275;48.914;12.566;2022-09-20T03:41:25;9.50;99.90
37410;DHT22;23275;48.914;12.566;2022-09-20T03:46:33;9.60;99.90
37410;DHT22;23275;48.914;12.566;2022-09-20T03:54:53;9.50;99.90
37410;DHT22;23275;48.914;12.566;2022-09-20T03:57:38;9.50;99.90
37410;DHT22;23275;48.914;12.566;2022-09-20T04:02:57;9.50;99.90
37410;DHT22;23275;48.914;12.566;2022-09-20T04:05:32;9.50;99.90
37410;DHT22;23275;48.914;12.566;2022-09-20T04:13:55;9.50;99.90
37410;DHT22;23275;48.914;12.566;2022-09-20T04:24:43;9.40;99.90
37410;DHT22;23275;48.914;12.566;2022-09-20T04:29:50;9.40;99.90
37410;DHT22;23275;48.914;12.566;2022-09-20T04:32:30;9.40;99.90
37410;DHT22;23275;48.914;12.566;2022-09-20T04:38:11;9.40;99.90
37410;DHT22;23275;48.914;12.566;2022-09-20T04:41:06;9.40;99.90
37410;DHT22;23275;48.914;12.566;2022-09-20T05:11:45;9.30;99.90
37410;DHT22;23275;48.914;12.566;2022-09-20T05:26:08;9.20;99.90
37410;DHT22;23275;48.914;12.566;2022-09-20T05:28:51;9.30;99.90
37410;DHT22;23275;48.914;12.566;2022-09-20T05:31:21;9.30;99.90
37410;DHT22;23275;48.914;12.566;2022-09-20T05:41:46;9.40;99.90
37410;DHT22;23275;48.914;12.566;2022-09-20T05:44:23;9.40;99.90
37410;DHT22;23275;48.914;12.566;2022-09-20T05:47:17;9.40;99.90
37410;DHT22;23275;48.914;12.566;2022-09-20T05:49:59;9.40;99.90
37410;DHT22;23275;48.914;12.566;2022-09-20T05:58:21;9.50;99.90
37410;DHT22;23275;48.914;12.566;2022-09-20T06:01:00;9.50;99.90
37410;DHT22;23275;48.914;12.566;2022-09-20T06:27:30;9.90;99.90
37410;DHT22;23275;48.914;12.566;2022-09-20T06:30:02;9.90;99.90
37410;DHT22;23275;48.914;12.566;2022-09-20T06:32:30;9.90;99.90
37410;DHT22;23275;48.914;12.566;2022-09-20T06:34:57;9.90;99.90
37410;DHT22;23275;48.914;12.566;2022-09-20T06:37:43;9.90;99.90
37410;DHT22;23275;48.914;12.566;2022-09-20T06:40:41;9.90;99.90
37410;DHT22;23275;48.914;12.566;2022-09-20T06:43:27;9.90;99.90
37410;DHT22;23275;48.914;12.566;2022-09-20T06:45:55;10.00;99.90
37410;DHT22;23275;48.914;12.566;2022-09-20T06:48:20;10.10;99.90
37410;DHT22;23275;48.914;12.566;2022-09-20T06:50:46;10.10;99.90
37410;DHT22;23275;48.914;12.566;2022-09-20T06:53:17;10.10;99.90
37410;DHT22;23275;48.914;12.566;2022-09-20T06:59:07;10.20;99.90
37410;DHT22;23275;48.914;12.566;2022-09-20T07:01:34;10.30;99.90
37410;DHT22;23275;48.914;12.566;2022-09-20T07:04:01;10.30;99.90
37410;DHT22;23275;48.914;12.566;2022-09-20T07:06:27;10.40;99.90
37410;DHT22;23275;48.914;12.566;2022-09-20T07:08:53;10.40;99.90
37410;DHT22;23275;48.914;12.566;2022-09-20T07:11:19;10.50;99.90
37410;DHT22;23275;48.914;12.566;2022-09-20T07:13:50;10.50;99.90
37410;DHT22;23275;48.914;12.566;2022-09-20T07:16:16;10.70;99.90
37410;DHT22;23275;48.914;12.566;2022-09-20T07:18:42;10.70;99.90
37410;DHT22;23275;48.914;12.566;2022-09-20T07:21:10;10.80;99.90
37410;DHT22;23275;48.914;12.566;2022-09-20T07:23:37;10.90;99.90
37410;DHT22;23275;48.914;12.566;2022-09-20T07:26:02;10.90;99.90
37410;DHT22;23275;48.914;12.566;2022-09-20T07:28:30;10.90;99.90
37410;DHT22;23275;48.914;12.566;2022-09-20T07:30:56;11.20;99.90
37410;DHT22;23275;48.914;12.566;2022-09-20T07:33:22;11.70;99.90
37410;DHT22;23275;48.914;12.566;2022-09-20T07:35:50;11.80;99.90
37410;DHT22;23275;48.914;12.566;2022-09-20T07:38:17;11.90;99.90
37410;DHT22;23275;48.914;12.566;2022-09-20T07:40:43;11.80;99.90
37410;DHT22;23275;48.914;12.566;2022-09-20T07:43:11;11.70;99.90
37410;DHT22;23275;48.914;12.566;2022-09-20T07:45:37;11.70;99.90
37410;DHT22;23275;48.914;12.566;2022-09-20T07:48:05;11.60;99.90
37410;DHT22;23275;48.914;12.566;2022-09-20T07:50:32;11.60;99.90
37410;DHT22;23275;48.914;12.566;2022-09-20T07:52:58;11.60;99.90
37410;DHT22;23275;48.914;12.566;2022-09-20T07:55:23;11.50;99.90
37410;DHT22;23275;48.914;12.566;2022-09-20T07:57:49;11.40;99.90
37410;DHT22;23275;48.914;12.566;2022-09-20T08:00:16;11.40;99.90
37410;DHT22;23275;48.914;12.566;2022-09-20T08:02:42;11.70;99.90
37410;DHT22;23275;48.914;12.566;2022-09-20T08:05:10;12.00;99.90
37410;DHT22;23275;48.914;12.566;2022-09-20T08:07:35;12.00;99.90
37410;DHT22;23275;48.914;12.566;2022-09-20T08:10:02;12.00;99.90
37410;DHT22;23275;48.914;12.566;2022-09-20T08:12:28;12.10;99.90
37410;DHT22;23275;48.914;12.566;2022-09-20T08:14:53;12.40;99.90
37410;DHT22;23275;48.914;12.566;2022-09-20T08:17:19;12.60;99.90
37410;DHT22;23275;48.914;12.566;2022-09-20T08:19:45;13.00;99.90
37410;DHT22;23275;48.914;12.566;2022-09-20T08:22:10;13.80;99.90
37410;DHT22;23275;48.914;12.566;2022-09-20T08:24:37;14.30;99.90
37410;DHT22;23275;48.914;12.566;2022-09-20T08:27:04;14.50;99.90
37410;DHT22;23275;48.914;12.566;2022-09-20T08:29:30;14.30;99.90
37410;DHT22;23275;48.914;12.566;2022-09-20T08:31:56;13.90;99.90
37410;DHT22;23275;48.914;12.566;2022-09-20T08:34:24;13.60;99.90
37410;DHT22;23275;48.914;12.566;2022-09-20T08:36:50;13.20;99.90
37410;DHT22;23275;48.914;12.566;2022-09-20T08:39:17;13.00;99.90
37410;DHT22;23275;48.914;12.566;2022-09-20T08:44:32;12.70;99.90
37410;DHT22;23275;48.914;12.566;2022-09-20T08:47:20;12.50;99.90
37410;DHT22;23275;48.914;12.566;2022-09-20T08:49:47;12.40;99.90
37410;DHT22;23275;48.914;12.566;2022-09-20T08:52:17;12.30;99.90
37410;DHT22;23275;48.914;12.566;2022-09-20T08:54:46;12.50;99.90
37410;DHT22;23275;48.914;12.566;2022-09-20T08:57:15;12.90;99.90
37410;DHT22;23275;48.914;12.566;2022-09-20T08:59:42;13.80;99.90
37410;DHT22;23275;48.914;12.566;2022-09-20T09:02:17;15.10;99.90
37410;DHT22;23275;48.914;12.566;2022-09-20T09:04:43;16.60;99.90
37410;DHT22;23275;48.914;12.566;2022-09-20T09:07:12;16.40;99.90
37410;DHT22;23275;48.914;12.566;2022-09-20T09:09:41;15.80;99.90
37410;DHT22;23275;48.914;12.566;2022-09-20T09:12:25;15.30;99.90
37410;DHT22;23275;48.914;12.566;2022-09-20T09:14:59;16.90;99.90
37410;DHT22;23275;48.914;12.566;2022-09-20T09:17:29;17.80;99.90
37410;DHT22;23275;48.914;12.566;2022-09-20T09:19:58;17.20;99.90
37410;DHT22;23275;48.914;12.566;2022-09-20T09:22:38;16.70;99.90
37410;DHT22;23275;48.914;12.566;2022-09-20T09:27:58;17.60;99.90
37410;DHT22;23275;48.914;12.566;2022-09-20T09:30:54;18.60;99.90
37410;DHT22;23275;48.914;12.566;2022-09-20T09:33:42;18.10;99.90
37410;DHT22;23275;48.914;12.566;2022-09-20T09:36:16;17.10;99.90
37410;DHT22;23275;48.914;12.566;2022-09-20T09:38:45;17.00;99.90
37410;DHT22;23275;48.914;12.566;2022-09-20T09:44:17;21.00;99.90
37410;DHT22;23275;48.914;12.566;2022-09-20T09:46:43;23.70;99.90
37410;DHT22;23275;48.914;12.566;2022-09-20T09:49:23;25.50;99.40
37410;DHT22;23275;48.914;12.566;2022-09-20T09:52:11;27.40;94.00
37410;DHT22;23275;48.914;12.566;2022-09-20T09:54:50;29.30;84.60
37410;DHT22;23275;48.914;12.566;2022-09-20T09:57:20;30.20;77.00
37410;DHT22;23275;48.914;12.566;2022-09-20T10:10:44;27.10;69.60
37410;DHT22;23275;48.914;12.566;2022-09-20T10:13:17;25.00;73.80
37410;DHT22;23275;48.914;12.566;2022-09-20T10:15:58;23.90;77.30
37410;DHT22;23275;48.914;12.566;2022-09-20T10:18:38;22.60;79.60
37410;DHT22;23275;48.914;12.566;2022-09-20T10:21:41;20.70;83.00
37410;DHT22;23275;48.914;12.566;2022-09-20T10:24:31;19.00;90.90
37410;DHT22;23275;48.914;12.566;2022-09-20T10:27:17;17.50;97.60
37410;DHT22;23275;48.914;12.566;2022-09-20T10:32:26;15.40;99.90
37410;DHT22;23275;48.914;12.566;2022-09-20T10:35:18;14.90;99.90
37410;DHT22;23275;48.914;12.566;2022-09-20T10:38:16;14.70;99.90
37410;DHT22;23275;48.914;12.566;2022-09-20T10:49:46;14.90;99.90
37410;DHT22;23275;48.914;12.566;2022-09-20T11:08:31;21.20;97.50
37410;DHT22;23275;48.914;12.566;2022-09-20T11:11:04;20.00;99.90
37410;DHT22;23275;48.914;12.566;2022-09-20T11:13:54;19.00;99.90
37410;DHT22;23275;48.914;12.566;2022-09-20T11:16:39;17.90;99.90
37410;DHT22;23275;48.914;12.566;2022-09-20T11:21:59;16.30;99.90
37410;DHT22;23275;48.914;12.566;2022-09-20T11:24:32;15.60;99.90
37410;DHT22;23275;48.914;12.566;2022-09-20T11:27:16;15.00;99.90
37410;DHT22;23275;48.914;12.566;2022-09-20T11:32:33;14.00;99.90
37410;DHT22;23275;48.914;12.566;2022-09-20T11:37:39;13.70;99.90
37410;DHT22;23275;48.914;12.566;2022-09-20T11:40:27;13.50;99.90
37410;DHT22;23275;48.914;12.566;2022-09-20T11:42:56;13.40;99.90
37410;DHT22;23275;48.914;12.566;2022-09-20T11:45:24;13.40;99.90
37410;DHT22;23275;48.914;12.566;2022-09-20T11:47:55;13.00;99.90
37410;DHT22;23275;48.914;12.566;2022-09-20T11:55:56;12.90;99.90
37410;DHT22;23275;48.914;12.566;2022-09-20T11:58:26;13.10;99.90
37410;DHT22;23275;48.914;12.566;2022-09-20T12:00:55;13.50;99.90
37410;DHT22;23275;48.914;12.566;2022-09-20T12:03:35;13.90;99.90
37410;DHT22;23275;48.914;12.566;2022-09-20T12:06:07;14.30;99.90
37410;DHT22;23275;48.914;12.566;2022-09-20T12:08:38;14.30;99.90
37410;DHT22;23275;48.914;12.566;2022-09-20T12:11:06;14.50;99.90
37410;DHT22;23275;48.914;12.566;2022-09-20T12:13:35;14.40;99.90
37410;DHT22;23275;48.914;12.566;2022-09-20T12:16:15;14.30;99.90
37410;DHT22;23275;48.914;12.566;2022-09-20T12:21:20;13.50;99.90
37410;DHT22;23275;48.914;12.566;2022-09-20T12:24:01;13.10;99.90
37410;DHT22;23275;48.914;12.566;2022-09-20T12:26:37;12.80;99.90
37410;DHT22;23275;48.914;12.566;2022-09-20T12:31:53;12.30;99.90
37410;DHT22;23275;48.914;12.566;2022-09-20T12:39:37;11.60;99.90
37410;DHT22;23275;48.914;12.566;2022-09-20T12:44:59;11.50;99.90
37410;DHT22;23275;48.914;12.566;2022-09-20T12:47:31;11.50;99.90
37410;DHT22;23275;48.914;12.566;2022-09-20T12:50:00;11.40;99.90
37410;DHT22;23275;48.914;12.566;2022-09-20T13:00:46;11.70;99.90
37410;DHT22;23275;48.914;12.566;2022-09-20T13:03:33;11.80;99.90
37410;DHT22;23275;48.914;12.566;2022-09-20T13:14:01;12.40;99.90
37410;DHT22;23275;48.914;12.566;2022-09-20T13:17:16;12.30;99.90
37410;DHT22;23275;48.914;12.566;2022-09-20T13:19:45;12.30;99.90
37410;DHT22;23275;48.914;12.566;2022-09-20T13:25:02;12.40;99.90
37410;DHT22;23275;48.914;12.566;2022-09-20T13:27:38;12.50;99.90
37410;DHT22;23275;48.914;12.566;2022-09-20T13:30:28;12.60;99.90
37410;DHT22;23275;48.914;12.566;2022-09-20T13:33:21;12.70;99.90
37410;DHT22;23275;48.914;12.566;2022-09-20T13:35:50;12.80;99.90
37410;DHT22;23275;48.914;12.566;2022-09-20T13:38:17;12.90;99.90
37410;DHT22;23275;48.914;12.566;2022-09-20T13:40:50;12.90;99.90
37410;DHT22;23275;48.914;12.566;2022-09-20T13:43:35;12.80;99.90
37410;DHT22;23275;48.914;12.566;2022-09-20T13:46:09;12.80;99.90
37410;DHT22;23275;48.914;12.566;2022-09-20T13:48:35;12.90;99.90
37410;DHT22;23275;48.914;12.566;2022-09-20T13:51:01;12.90;99.90
37410;DHT22;23275;48.914;12.566;2022-09-20T13:53:28;13.00;99.90
37410;DHT22;23275;48.914;12.566;2022-09-20T13:55:57;12.90;99.90
37410;DHT22;23275;48.914;12.566;2022-09-20T13:58:34;12.90;99.90
37410;DHT22;23275;48.914;12.566;2022-09-20T14:01:03;12.80;99.90
37410;DHT22;23275;48.914;12.566;2022-09-20T14:03:32;12.80;99.90
37410;DHT22;23275;48.914;12.566;2022-09-20T14:06:08;12.80;99.90
37410;DHT22;23275;48.914;12.566;2022-09-20T14:08:41;12.90;99.90
37410;DHT22;23275;48.914;12.566;2022-09-20T14:11:20;13.00;99.90
37410;DHT22;23275;48.914;12.566;2022-09-20T14:13:57;13.10;99.90
37410;DHT22;23275;48.914;12.566;2022-09-20T14:16:28;13.10;99.90
37410;DHT22;23275;48.914;12.566;2022-09-20T14:18:54;13.20;99.90
37410;DHT22;23275;48.914;12.566;2022-09-20T14:21:22;13.20;99.90
37410;DHT22;23275;48.914;12.566;2022-09-20T14:26:33;13.20;99.90
37410;DHT22;23275;48.914;12.566;2022-09-20T14:40:13;12.90;99.90
37410;DHT22;23275;48.914;12.566;2022-09-20T14:42:42;12.90;99.90
37410;DHT22;23275;48.914;12.566;2022-09-20T14:45:35;12.80;99.90
37410;DHT22;23275;48.914;12.566;2022-09-20T14:56:37;12.90;99.90
37410;DHT22;23275;48.914;12.566;2022-09-20T15:01:30;13.10;99.90
37410;DHT22;23275;48.914;12.566;2022-09-20T15:03:57;13.10;99.90
37410;DHT22;23275;48.914;12.566;2022-09-20T15:06:24;13.10;99.90
37410;DHT22;23275;48.914;12.566;2022-09-20T15:08:50;13.00;99.90
37410;DHT22;23275;48.914;12.566;2022-09-20T15:11:17;13.00;99.90
37410;DHT22;23275;48.914;12.566;2022-09-20T15:13:43;13.00;99.90
37410;DHT22;23275;48.914;12.566;2022-09-20T15:16:11;13.00;99.90
37410;DHT22;23275;48.914;12.566;2022-09-20T15:18:41;13.10;99.90
37410;DHT22;23275;48.914;12.566;2022-09-20T15:21:07;13.20;99.90
37410;DHT22;23275;48.914;12.566;2022-09-20T15:23:35;13.20;99.90
37410;DHT22;23275;48.914;12.566;2022-09-20T15:26:01;13.20;99.90
37410;DHT22;23275;48.914;12.566;2022-09-20T15:28:27;13.20;99.90
37410;DHT22;23275;48.914;12.566;2022-09-20T15:30:53;13.10;99.90
37410;DHT22;23275;48.914;12.566;2022-09-20T15:33:20;13.10;99.90
37410;DHT22;23275;48.914;12.566;2022-09-20T15:35:46;13.00;99.90
37410;DHT22;23275;48.914;12.566;2022-09-20T15:38:12;12.90;99.90
37410;DHT22;23275;48.914;12.566;2022-09-20T15:40:40;12.70;99.90
37410;DHT22;23275;48.914;12.566;2022-09-20T15:43:06;12.60;99.90
37410;DHT22;23275;48.914;12.566;2022-09-20T15:45:34;12.50;99.90
37410;DHT22;23275;48.914;12.566;2022-09-20T15:48:00;12.40;99.90
37410;DHT22;23275;48.914;12.566;2022-09-20T15:50:27;12.30;99.90
37410;DHT22;23275;48.914;12.566;2022-09-20T15:52:52;12.20;99.90
37410;DHT22;23275;48.914;12.566;2022-09-20T15:55:19;12.20;99.90
37410;DHT22;23275;48.914;12.566;2022-09-20T15:57:45;12.10;99.90
37410;DHT22;23275;48.914;12.566;2022-09-20T16:00:11;12.00;99.90
37410;DHT22;23275;48.914;12.566;2022-09-20T16:02:37;11.90;99.90
37410;DHT22;23275;48.914;12.566;2022-09-20T16:05:03;11.80;99.90
37410;DHT22;23275;48.914;12.566;2022-09-20T16:07:30;11.80;99.90
37410;DHT22;23275;48.914;12.566;2022-09-20T16:09:56;11.80;99.90
37410;DHT22;23275;48.914;12.566;2022-09-20T16:12:23;11.80;99.90
37410;DHT22;23275;48.914;12.566;2022-09-20T16:14:49;11.70;99.90
37410;DHT22;23275;48.914;12.566;2022-09-20T16:17:16;11.70;99.90
37410;DHT22;23275;48.914;12.566;2022-09-20T16:19:42;11.70;99.90
37410;DHT22;23275;48.914;12.566;2022-09-20T16:22:09;11.70;99.90
37410;DHT22;23275;48.914;12.566;2022-09-20T16:24:37;11.70;99.90
37410;DHT22;23275;48.914;12.566;2022-09-20T16:27:04;11.60;99.90
37410;DHT22;23275;48.914;12.566;2022-09-20T16:29:31;11.60;99.90
37410;DHT22;23275;48.914;12.566;2022-09-20T16:31:57;11.50;99.90
37410;DHT22;23275;48.914;12.566;2022-09-20T16:34:29;11.40;99.90
37410;DHT22;23275;48.914;12.566;2022-09-20T16:37:13;11.40;99.90
37410;DHT22;23275;48.914;12.566;2022-09-20T16:39:41;11.30;99.90
37410;DHT22;23275;48.914;12.566;2022-09-20T16:42:07;11.20;99.90
37410;DHT22;23275;48.914;12.566;2022-09-20T16:44:38;11.10;99.90
37410;DHT22;23275;48.914;12.566;2022-09-20T16:47:06;11.10;99.90
37410;DHT22;23275;48.914;12.566;2022-09-20T16:49:33;11.00;99.90
37410;DHT22;23275;48.914;12.566;2022-09-20T16:51:59;11.00;99.90
37410;DHT22;23275;48.914;12.566;2022-09-20T16:54:24;11.00;99.90
37410;DHT22;23275;48.914;12.566;2022-09-20T16:56:50;11.10;99.90
37410;DHT22;23275;48.914;12.566;2022-09-20T16:59:18;11.10;99.90
37410;DHT22;23275;48.914;12.566;2022-09-20T17:01:47;11.10;99.90
37410;DHT22;23275;48.914;12.566;2022-09-20T17:04:14;11.00;99.90
37410;DHT22;23275;48.914;12.566;2022-09-20T17:06:42;11.00;99.90
37410;DHT22;23275;48.914;12.566;2022-09-20T17:09:08;10.90;99.90
37410;DHT22;23275;48.914;12.566;2022-09-20T17:11:39;10.90;99.90
37410;DHT22;23275;48.914;12.566;2022-09-20T17:14:06;10.80;99.90
37410;DHT22;23275;48.914;12.566;2022-09-20T17:16:35;10.80;99.90
37410;DHT22;23275;48.914;12.566;2022-09-20T17:19:04;10.80;99.90
37410;DHT22;23275;48.914;12.566;2022-09-20T17:21:35;10.80;99.90
37410;DHT22;23275;48.914;12.566;2022-09-20T17:24:02;10.80;99.90
37410;DHT22;23275;48.914;12.566;2022-09-20T17:26:32;10.70;99.90
37410;DHT22;23275;48.914;12.566;2022-09-20T17:28:59;10.60;99.90
37410;DHT22;23275;48.914;12.566;2022-09-20T17:31:27;10.60;99.90
37410;DHT22;23275;48.914;12.566;2022-09-20T17:33:59;10.50;99.90
37410;DHT22;23275;48.914;12.566;2022-09-20T17:36:26;10.50;99.90
37410;DHT22;23275;48.914;12.566;2022-09-20T17:38:54;10.40;99.90
37410;DHT22;23275;48.914;12.566;2022-09-20T17:41:20;10.40;99.90
37410;DHT22;23275;48.914;12.566;2022-09-20T17:43:47;10.30;99.90
37410;DHT22;23275;48.914;12.566;2022-09-20T17:46:18;10.30;99.90
37410;DHT22;23275;48.914;12.566;2022-09-20T17:48:46;10.20;99.90
37410;DHT22;23275;48.914;12.566;2022-09-20T17:51:15;10.10;99.90
37410;DHT22;23275;48.914;12.566;2022-09-20T17:53:41;10.10;99.90
37410;DHT22;23275;48.914;12.566;2022-09-20T17:56:10;10.10;99.90
37410;DHT22;23275;48.914;12.566;2022-09-20T17:58:37;10.00;99.90
37410;DHT22;23275;48.914;12.566;2022-09-20T18:01:09;10.00;99.90
37410;DHT22;23275;48.914;12.566;2022-09-20T18:03:37;9.90;99.90
37410;DHT22;23275;48.914;12.566;2022-09-20T18:06:16;9.90;99.90
37410;DHT22;23275;48.914;12.566;2022-09-20T18:08:51;9.90;99.90
37410;DHT22;23275;48.914;12.566;2022-09-20T18:11:19;9.90;99.90
37410;DHT22;23275;48.914;12.566;2022-09-20T18:13:46;9.90;99.90
37410;DHT22;23275;48.914;12.566;2022-09-20T18:16:13;9.80;99.90
37410;DHT22;23275;48.914;12.566;2022-09-20T18:18:40;9.80;99.90
37410;DHT22;23275;48.914;12.566;2022-09-20T18:21:10;9.70;99.90
37410;DHT22;23275;48.914;12.566;2022-09-20T18:23:36;9.70;99.90
37410;DHT22;23275;48.914;12.566;2022-09-20T18:26:10;9.60;99.90
37410;DHT22;23275;48.914;12.566;2022-09-20T18:31:32;9.40;99.90
37410;DHT22;23275;48.914;12.566;2022-09-20T18:34:08;9.30;99.90
37410;DHT22;23275;48.914;12.566;2022-09-20T18:36:37;9.20;99.90
37410;DHT22;23275;48.914;12.566;2022-09-20T18:39:04;9.20;99.90
37410;DHT22;23275;48.914;12.566;2022-09-20T18:41:32;9.10;99.90
37410;DHT22;23275;48.914;12.566;2022-09-20T18:44:00;9.10;99.90
37410;DHT22;23275;48.914;12.566;2022-09-20T18:46:27;9.00;99.90
37410;DHT22;23275;48.914;12.566;2022-09-20T18:48:56;9.00;99.90
37410;DHT22;23275;48.914;12.566;2022-09-20T18:51:24;8.90;99.90
37410;DHT22;23275;48.914;12.566;2022-09-20T18:53:50;8.80;99.90
37410;DHT22;23275;48.914;12.566;2022-09-20T18:58:52;8.70;99.90
37410;DHT22;23275;48.914;12.566;2022-09-20T19:01:45;8.60;99.90
37410;DHT22;23275;48.914;12.566;2022-09-20T19:07:30;8.50;99.90
37410;DHT22;23275;48.914;12.566;2022-09-20T19:10:34;8.50;99.90
37410;DHT22;23275;48.914;12.566;2022-09-20T19:16:20;8.50;99.90
37410;DHT22;23275;48.914;12.566;2022-09-20T19:21:41;8.50;99.90
37410;DHT22;23275;48.914;12.566;2022-09-20T19:26:46;8.60;99.90
37410;DHT22;23275;48.914;12.566;2022-09-20T19:29:26;8.60;99.90
37410;DHT22;23275;48.914;12.566;2022-09-20T19:31:57;8.70;99.90
37410;DHT22;23275;48.914;12.566;2022-09-20T19:34:24;8.70;99.90
37410;DHT22;23275;48.914;12.566;2022-09-20T19:50:45;8.70;99.90
37410;DHT22;23275;48.914;12.566;2022-09-20T19:53:14;8.60;99.90
37410;DHT22;23275;48.914;12.566;2022-09-20T19:55:45;8.60;99.90
37410;DHT22;23275;48.914;12.566;2022-09-20T19:58:13;8.50;99.90
37410;DHT22;23275;48.914;12.566;2022-09-20T20:00:41;8.50;99.90
37410;DHT22;23275;48.914;12.566;2022-09-20T20:03:09;8.50;99.90
37410;DHT22;23275;48.914;12.566;2022-09-20T20:05:35;8.50;99.90
37410;DHT22;23275;48.914;12.566;2022-09-20T20:10:46;8.40;99.90
37410;DHT22;23275;48.914;12.566;2022-09-20T20:13:19;8.40;99.90
37410;DHT22;23275;48.914;12.566;2022-09-20T20:16:12;8.40;99.90
37410;DHT22;23275;48.914;12.566;2022-09-20T20:21:31;8.30;99.90
37410;DHT22;23275;48.914;12.566;2022-09-20T20:27:03;8.30;99.90
37410;DHT22;23275;48.914;12.566;2022-09-20T20:29:28;8.20;99.90
37410;DHT22;23275;48.914;12.566;2022-09-20T20:31:54;8.20;99.90
37410;DHT22;23275;48.914;12.566;2022-09-20T20:34:20;8.30;99.90
37410;DHT22;23275;48.914;12.566;2022-09-20T20:36:45;8.20;99.90
37410;DHT22;23275;48.914;12.566;2022-09-20T20:39:11;8.20;99.90
37410;DHT22;23275;48.914;12.566;2022-09-20T20:41:37;8.10;99.90
37410;DHT22;23275;48.914;12.566;2022-09-20T20:44:04;8.10;99.90
37410;DHT22;23275;48.914;12.566;2022-09-20T20:46:31;8.10;99.90
37410;DHT22;23275;48.914;12.566;2022-09-20T20:48:57;8.00;99.90
37410;DHT22;23275;48.914;12.566;2022-09-20T20:51:23;8.00;99.90
37410;DHT22;23275;48.914;12.566;2022-09-20T20:53:51;7.90;99.90
37410;DHT22;23275;48.914;12.566;2022-09-20T20:56:26;8.00;99.90
37410;DHT22;23275;48.914;12.566;2022-09-20T20:58:53;7.90;99.90
37410;DHT22;23275;48.914;12.566;2022-09-20T21:01:21;7.90;99.90
37410;DHT22;23275;48.914;12.566;2022-09-20T21:03:51;7.90;99.90
37410;DHT22;23275;48.914;12.566;2022-09-20T21:06:21;8.00;99.90
37410;DHT22;23275;48.914;12.566;2022-09-20T21:08:49;8.00;99.90
37410;DHT22;23275;48.914;12.566;2022-09-20T21:11:18;8.00;99.90
37410;DHT22;23275;48.914;12.566;2022-09-20T21:13:45;8.00;99.90
37410;DHT22;23275;48.914;12.566;2022-09-20T21:16:15;8.00;99.90
37410;DHT22;23275;48.914;12.566;2022-09-20T21:18:43;8.00;99.90
37410;DHT22;23275;48.914;12.566;2022-09-20T21:23:50;8.00;99.90
37410;DHT22;23275;48.914;12.566;2022-09-20T21:26:16;8.00;99.90
37410;DHT22;23275;48.914;12.566;2022-09-20T21:28:44;7.90;99.90
37410;DHT22;23275;48.914;12.566;2022-09-20T21:31:11;7.90;99.90
37410;DHT22;23275;48.914;12.566;2022-09-20T21:33:41;7.90;99.90
37410;DHT22;23275;48.914;12.566;2022-09-20T21:36:09;7.90;99.90
37410;DHT22;23275;48.914;12.566;2022-09-20T21:38:37;7.90;99.90
37410;DHT22;23275;48.914;12.566;2022-09-20T21:41:14;7.80;99.90
37410;DHT22;23275;48.914;12.566;2022-09-20T21:43:41;7.80;99.90
37410;DHT22;23275;48.914;12.566;2022-09-20T21:46:18;7.80;99.90
37410;DHT22;23275;48.914;12.566;2022-09-20T21:48:45;7.70;99.90
37410;DHT22;23275;48.914;12.566;2022-09-20T21:51:13;7.70;99.90
37410;DHT22;23275;48.914;12.566;2022-09-20T21:53:39;7.70;99.90